Главная страница
METAR-TAF:

METAR-TAF

Аэропорты :

Тунис-Карфаген

Тунис, Тунис

широта: 36-50N, долгота: 010-14E, высота над уровнем моря: 3 м

Текущие метеонаблюдения

Эта сводка был подготовлена 18 минут назад, в 22:30 UTC
Штиль
Температура 24°C
Влажность 54%
Давление 1016 hPa
Видимость 10 км и более
небольшая облачность на высоте 3300 фута

METAR: DTTA 222230Z 00000KT 9999 FEW033 24/14 Q1016 NOSIG

Время: 23:48 (22:48 UTC)

Прогноз

Эта сводка был подготовлена 5 часа и 48 минут назад, в 17:00 UTC
Прогноз действительный с 22-го 18 UTC до 23-го 18 UTC
Ветер 10 Узел от северный
Видимость 10 км и более
небольшая облачность на высоте 3300 фута
изменения
С 22-го 19 UTC до 22-го 21 UTC
Ветер 5 Узел от западный
изменения
С 23-го 13 UTC до 23-го 15 UTC
Ветер 14 Узел от северо-западный

TAF: DTTA 221700Z 2218/2318 01010KT 9999 FEW033 BECMG 2219/2221 28005KT BECMG 2313/2315 31014KT

Метеонаблюдения и прогнозы для более 4000 аэропортов (сводки METAR и TAF).

Имеющиеся станции представлены на карте желтыми и красными точками.

Чтобы увидеть название станции, наведите на нее мышь.

Затем щелкните, чтобы увидеть метеонаблюдения и метеопрогнозы.

Управление картой: чтобы увеличить масштаб, щелкните зеленые кнопки с черным крестиком; чтобы уменьшить масштаб, щелкните зеленую кнопку с тире; для просмотра соседних карт щелкайте зеленые стрелки.


METAR-TAF: